sensor_id;sensor_type;location;lat;lon;timestamp;P1;durP1;ratioP1;P2;durP2;ratioP2
2486;SDS011;1254;49.144;8.212;2023-05-21T00:00:13;21.20;;;17.90;;
2486;SDS011;1254;49.144;8.212;2023-05-21T00:02:41;21.60;;;17.60;;
2486;SDS011;1254;49.144;8.212;2023-05-21T00:05:09;23.10;;;18.00;;
2486;SDS011;1254;49.144;8.212;2023-05-21T00:07:39;22.33;;;17.40;;
2486;SDS011;1254;49.144;8.212;2023-05-21T00:10:08;20.63;;;18.30;;
2486;SDS011;1254;49.144;8.212;2023-05-21T00:12:37;30.90;;;17.40;;
2486;SDS011;1254;49.144;8.212;2023-05-21T00:15:07;20.63;;;17.20;;
2486;SDS011;1254;49.144;8.212;2023-05-21T00:17:35;21.80;;;17.77;;
2486;SDS011;1254;49.144;8.212;2023-05-21T00:20:05;27.37;;;17.93;;
2486;SDS011;1254;49.144;8.212;2023-05-21T00:22:35;20.87;;;17.13;;
2486;SDS011;1254;49.144;8.212;2023-05-21T00:25:03;19.60;;;17.43;;
2486;SDS011;1254;49.144;8.212;2023-05-21T00:27:31;20.90;;;18.70;;
2486;SDS011;1254;49.144;8.212;2023-05-21T00:30:00;20.03;;;17.00;;
2486;SDS011;1254;49.144;8.212;2023-05-21T00:32:30;21.73;;;17.30;;
2486;SDS011;1254;49.144;8.212;2023-05-21T00:34:58;21.97;;;15.47;;
2486;SDS011;1254;49.144;8.212;2023-05-21T00:37:26;23.80;;;17.40;;
2486;SDS011;1254;49.144;8.212;2023-05-21T00:39:59;20.60;;;17.67;;
2486;SDS011;1254;49.144;8.212;2023-05-21T00:42:30;24.40;;;18.43;;
2486;SDS011;1254;49.144;8.212;2023-05-21T00:44:58;24.00;;;18.00;;
2486;SDS011;1254;49.144;8.212;2023-05-21T00:47:28;19.17;;;16.87;;
2486;SDS011;1254;49.144;8.212;2023-05-21T00:49:58;22.60;;;18.50;;
2486;SDS011;1254;49.144;8.212;2023-05-21T00:52:26;19.67;;;16.20;;
2486;SDS011;1254;49.144;8.212;2023-05-21T00:54:55;21.90;;;17.00;;
2486;SDS011;1254;49.144;8.212;2023-05-21T00:57:24;19.43;;;17.03;;
2486;SDS011;1254;49.144;8.212;2023-05-21T00:59:53;22.60;;;18.40;;
2486;SDS011;1254;49.144;8.212;2023-05-21T01:02:21;20.57;;;17.77;;
2486;SDS011;1254;49.144;8.212;2023-05-21T01:04:52;20.63;;;17.30;;
2486;SDS011;1254;49.144;8.212;2023-05-21T01:07:22;22.50;;;16.87;;
2486;SDS011;1254;49.144;8.212;2023-05-21T01:09:51;20.30;;;17.43;;
2486;SDS011;1254;49.144;8.212;2023-05-21T01:12:20;20.87;;;16.83;;
2486;SDS011;1254;49.144;8.212;2023-05-21T01:14:49;22.20;;;17.07;;
2486;SDS011;1254;49.144;8.212;2023-05-21T01:17:18;21.60;;;16.67;;
2486;SDS011;1254;49.144;8.212;2023-05-21T01:19:49;23.47;;;16.90;;
2486;SDS011;1254;49.144;8.212;2023-05-21T01:22:20;20.37;;;16.70;;
2486;SDS011;1254;49.144;8.212;2023-05-21T01:24:52;17.70;;;15.80;;
2486;SDS011;1254;49.144;8.212;2023-05-21T01:27:20;20.20;;;16.87;;
2486;SDS011;1254;49.144;8.212;2023-05-21T01:29:49;26.07;;;17.43;;
2486;SDS011;1254;49.144;8.212;2023-05-21T01:32:19;25.73;;;17.23;;
2486;SDS011;1254;49.144;8.212;2023-05-21T01:34:54;22.80;;;17.20;;
2486;SDS011;1254;49.144;8.212;2023-05-21T01:37:25;22.33;;;16.70;;
2486;SDS011;1254;49.144;8.212;2023-05-21T01:39:56;19.27;;;15.83;;
2486;SDS011;1254;49.144;8.212;2023-05-21T01:42:26;17.90;;;15.93;;
2486;SDS011;1254;49.144;8.212;2023-05-21T01:44:56;20.83;;;17.40;;
2486;SDS011;1254;49.144;8.212;2023-05-21T01:47:26;19.33;;;17.23;;
2486;SDS011;1254;49.144;8.212;2023-05-21T01:49:56;21.60;;;16.90;;
2486;SDS011;1254;49.144;8.212;2023-05-21T01:52:25;19.37;;;16.97;;
2486;SDS011;1254;49.144;8.212;2023-05-21T01:54:56;22.80;;;17.50;;
2486;SDS011;1254;49.144;8.212;2023-05-21T01:57:25;20.13;;;17.10;;
2486;SDS011;1254;49.144;8.212;2023-05-21T01:59:53;18.33;;;16.40;;
2486;SDS011;1254;49.144;8.212;2023-05-21T02:02:22;22.70;;;17.10;;
2486;SDS011;1254;49.144;8.212;2023-05-21T02:04:51;22.10;;;17.40;;
2486;SDS011;1254;49.144;8.212;2023-05-21T02:07:19;19.50;;;17.03;;
2486;SDS011;1254;49.144;8.212;2023-05-21T02:09:47;19.53;;;17.50;;
2486;SDS011;1254;49.144;8.212;2023-05-21T02:12:18;18.50;;;16.40;;
2486;SDS011;1254;49.144;8.212;2023-05-21T02:14:46;18.30;;;15.17;;
2486;SDS011;1254;49.144;8.212;2023-05-21T02:17:15;19.40;;;16.07;;
2486;SDS011;1254;49.144;8.212;2023-05-21T02:19:43;21.93;;;16.57;;
2486;SDS011;1254;49.144;8.212;2023-05-21T02:22:12;23.60;;;17.30;;
2486;SDS011;1254;49.144;8.212;2023-05-21T02:24:40;22.20;;;17.40;;
2486;SDS011;1254;49.144;8.212;2023-05-21T02:27:08;23.13;;;17.20;;
2486;SDS011;1254;49.144;8.212;2023-05-21T02:29:40;18.23;;;16.33;;
2486;SDS011;1254;49.144;8.212;2023-05-21T02:32:08;21.93;;;17.10;;
2486;SDS011;1254;49.144;8.212;2023-05-21T02:34:36;22.07;;;17.30;;
2486;SDS011;1254;49.144;8.212;2023-05-21T02:37:07;20.70;;;17.80;;
2486;SDS011;1254;49.144;8.212;2023-05-21T02:39:35;21.80;;;17.67;;
2486;SDS011;1254;49.144;8.212;2023-05-21T02:42:04;25.50;;;17.50;;
2486;SDS011;1254;49.144;8.212;2023-05-21T02:44:32;23.83;;;17.13;;
2486;SDS011;1254;49.144;8.212;2023-05-21T02:47:02;24.63;;;17.30;;
2486;SDS011;1254;49.144;8.212;2023-05-21T02:49:30;21.47;;;17.40;;
2486;SDS011;1254;49.144;8.212;2023-05-21T02:51:58;18.63;;;16.10;;
2486;SDS011;1254;49.144;8.212;2023-05-21T02:54:26;21.40;;;17.83;;
2486;SDS011;1254;49.144;8.212;2023-05-21T02:56:55;18.73;;;16.37;;
2486;SDS011;1254;49.144;8.212;2023-05-21T02:59:23;19.47;;;16.40;;
2486;SDS011;1254;49.144;8.212;2023-05-21T03:01:51;25.43;;;18.10;;
2486;SDS011;1254;49.144;8.212;2023-05-21T03:04:21;19.43;;;17.30;;
2486;SDS011;1254;49.144;8.212;2023-05-21T03:06:50;21.77;;;17.27;;
2486;SDS011;1254;49.144;8.212;2023-05-21T03:09:20;25.10;;;17.67;;
2486;SDS011;1254;49.144;8.212;2023-05-21T03:11:48;24.20;;;17.60;;
2486;SDS011;1254;49.144;8.212;2023-05-21T03:14:17;23.10;;;16.73;;
2486;SDS011;1254;49.144;8.212;2023-05-21T03:16:45;22.40;;;16.33;;
2486;SDS011;1254;49.144;8.212;2023-05-21T03:19:14;22.30;;;16.70;;
2486;SDS011;1254;49.144;8.212;2023-05-21T03:21:43;18.47;;;16.40;;
2486;SDS011;1254;49.144;8.212;2023-05-21T03:24:11;23.77;;;17.73;;
2486;SDS011;1254;49.144;8.212;2023-05-21T03:26:40;19.07;;;17.00;;
2486;SDS011;1254;49.144;8.212;2023-05-21T03:29:08;26.93;;;17.30;;
2486;SDS011;1254;49.144;8.212;2023-05-21T03:31:39;18.83;;;14.17;;
2486;SDS011;1254;49.144;8.212;2023-05-21T03:34:09;22.30;;;15.43;;
2486;SDS011;1254;49.144;8.212;2023-05-21T03:36:37;21.60;;;18.20;;
2486;SDS011;1254;49.144;8.212;2023-05-21T03:39:07;21.10;;;16.40;;
2486;SDS011;1254;49.144;8.212;2023-05-21T03:41:36;21.43;;;17.70;;
2486;SDS011;1254;49.144;8.212;2023-05-21T03:44:21;20.27;;;16.40;;
2486;SDS011;1254;49.144;8.212;2023-05-21T03:46:56;21.40;;;16.20;;
2486;SDS011;1254;49.144;8.212;2023-05-21T03:49:27;20.10;;;16.10;;
2486;SDS011;1254;49.144;8.212;2023-05-21T03:51:57;22.30;;;16.73;;
2486;SDS011;1254;49.144;8.212;2023-05-21T03:54:27;18.57;;;16.40;;
2486;SDS011;1254;49.144;8.212;2023-05-21T03:57:00;21.90;;;16.53;;
2486;SDS011;1254;49.144;8.212;2023-05-21T03:59:28;19.23;;;16.30;;
2486;SDS011;1254;49.144;8.212;2023-05-21T04:01:59;21.23;;;16.33;;
2486;SDS011;1254;49.144;8.212;2023-05-21T04:04:28;19.03;;;16.17;;
2486;SDS011;1254;49.144;8.212;2023-05-21T04:06:56;22.37;;;16.47;;
2486;SDS011;1254;49.144;8.212;2023-05-21T04:09:24;20.03;;;17.03;;
2486;SDS011;1254;49.144;8.212;2023-05-21T04:11:55;21.73;;;16.50;;
2486;SDS011;1254;49.144;8.212;2023-05-21T04:14:23;18.60;;;16.50;;
2486;SDS011;1254;49.144;8.212;2023-05-21T04:16:52;19.87;;;17.50;;
2486;SDS011;1254;49.144;8.212;2023-05-21T04:19:21;21.33;;;16.37;;
2486;SDS011;1254;49.144;8.212;2023-05-21T04:21:49;20.70;;;17.10;;
2486;SDS011;1254;49.144;8.212;2023-05-21T04:24:18;22.57;;;16.20;;
2486;SDS011;1254;49.144;8.212;2023-05-21T04:27:00;17.83;;;15.67;;
2486;SDS011;1254;49.144;8.212;2023-05-21T04:29:30;19.27;;;16.10;;
2486;SDS011;1254;49.144;8.212;2023-05-21T04:31:58;21.30;;;16.40;;
2486;SDS011;1254;49.144;8.212;2023-05-21T04:34:27;25.40;;;16.40;;
2486;SDS011;1254;49.144;8.212;2023-05-21T04:36:57;22.40;;;17.77;;
2486;SDS011;1254;49.144;8.212;2023-05-21T04:39:27;20.73;;;17.70;;
2486;SDS011;1254;49.144;8.212;2023-05-21T04:41:56;20.13;;;15.87;;
2486;SDS011;1254;49.144;8.212;2023-05-21T04:44:26;22.10;;;16.83;;
2486;SDS011;1254;49.144;8.212;2023-05-21T04:46:56;22.10;;;17.13;;
2486;SDS011;1254;49.144;8.212;2023-05-21T04:49:25;19.43;;;16.33;;
2486;SDS011;1254;49.144;8.212;2023-05-21T04:51:53;20.20;;;15.27;;
2486;SDS011;1254;49.144;8.212;2023-05-21T04:54:22;20.50;;;15.97;;
2486;SDS011;1254;49.144;8.212;2023-05-21T04:56:51;16.97;;;15.10;;
2486;SDS011;1254;49.144;8.212;2023-05-21T04:59:19;22.83;;;17.30;;
2486;SDS011;1254;49.144;8.212;2023-05-21T05:01:49;21.67;;;16.13;;
2486;SDS011;1254;49.144;8.212;2023-05-21T05:04:17;21.03;;;15.83;;
2486;SDS011;1254;49.144;8.212;2023-05-21T05:06:46;18.83;;;15.90;;
2486;SDS011;1254;49.144;8.212;2023-05-21T05:09:14;20.37;;;16.20;;
2486;SDS011;1254;49.144;8.212;2023-05-21T05:11:43;24.27;;;16.40;;
2486;SDS011;1254;49.144;8.212;2023-05-21T05:14:11;19.03;;;17.03;;
2486;SDS011;1254;49.144;8.212;2023-05-21T05:16:41;19.20;;;15.63;;
2486;SDS011;1254;49.144;8.212;2023-05-21T05:19:14;17.20;;;15.43;;
2486;SDS011;1254;49.144;8.212;2023-05-21T05:21:43;16.93;;;15.20;;
2486;SDS011;1254;49.144;8.212;2023-05-21T05:24:13;19.83;;;15.90;;
2486;SDS011;1254;49.144;8.212;2023-05-21T05:26:42;18.57;;;16.13;;
2486;SDS011;1254;49.144;8.212;2023-05-21T05:29:10;18.30;;;16.33;;
2486;SDS011;1254;49.144;8.212;2023-05-21T05:31:39;21.10;;;15.80;;
2486;SDS011;1254;49.144;8.212;2023-05-21T05:34:07;20.50;;;14.00;;
2486;SDS011;1254;49.144;8.212;2023-05-21T05:36:37;17.53;;;15.53;;
2486;SDS011;1254;49.144;8.212;2023-05-21T05:39:05;19.07;;;15.83;;
2486;SDS011;1254;49.144;8.212;2023-05-21T05:41:33;21.90;;;15.60;;
2486;SDS011;1254;49.144;8.212;2023-05-21T05:44:02;21.57;;;16.03;;
2486;SDS011;1254;49.144;8.212;2023-05-21T05:46:34;17.10;;;15.30;;
2486;SDS011;1254;49.144;8.212;2023-05-21T05:49:02;24.13;;;15.13;;
2486;SDS011;1254;49.144;8.212;2023-05-21T05:51:31;19.23;;;15.03;;
2486;SDS011;1254;49.144;8.212;2023-05-21T05:54:00;17.53;;;15.30;;
2486;SDS011;1254;49.144;8.212;2023-05-21T05:56:29;21.20;;;14.50;;
2486;SDS011;1254;49.144;8.212;2023-05-21T05:58:58;20.80;;;15.60;;
2486;SDS011;1254;49.144;8.212;2023-05-21T06:01:27;18.43;;;14.90;;
2486;SDS011;1254;49.144;8.212;2023-05-21T06:03:57;17.93;;;15.70;;
2486;SDS011;1254;49.144;8.212;2023-05-21T06:06:25;18.90;;;16.23;;
2486;SDS011;1254;49.144;8.212;2023-05-21T06:08:54;19.00;;;15.67;;
2486;SDS011;1254;49.144;8.212;2023-05-21T06:11:27;16.47;;;14.07;;
2486;SDS011;1254;49.144;8.212;2023-05-21T06:13:56;16.60;;;14.17;;
2486;SDS011;1254;49.144;8.212;2023-05-21T06:16:26;17.17;;;14.87;;
2486;SDS011;1254;49.144;8.212;2023-05-21T06:18:56;16.57;;;14.87;;
2486;SDS011;1254;49.144;8.212;2023-05-21T06:21:24;17.13;;;13.93;;
2486;SDS011;1254;49.144;8.212;2023-05-21T06:23:56;17.83;;;16.00;;
2486;SDS011;1254;49.144;8.212;2023-05-21T06:26:24;18.20;;;15.57;;
2486;SDS011;1254;49.144;8.212;2023-05-21T06:28:54;16.37;;;14.57;;
2486;SDS011;1254;49.144;8.212;2023-05-21T06:31:23;16.43;;;14.17;;
2486;SDS011;1254;49.144;8.212;2023-05-21T06:33:51;16.40;;;14.50;;
2486;SDS011;1254;49.144;8.212;2023-05-21T06:36:19;18.50;;;15.00;;
2486;SDS011;1254;49.144;8.212;2023-05-21T06:38:48;18.83;;;15.43;;
2486;SDS011;1254;49.144;8.212;2023-05-21T06:41:17;17.87;;;14.33;;
2486;SDS011;1254;49.144;8.212;2023-05-21T06:43:52;17.17;;;15.23;;
2486;SDS011;1254;49.144;8.212;2023-05-21T06:46:40;16.43;;;14.43;;
2486;SDS011;1254;49.144;8.212;2023-05-21T06:49:09;18.37;;;14.27;;
2486;SDS011;1254;49.144;8.212;2023-05-21T06:51:39;17.07;;;15.07;;
2486;SDS011;1254;49.144;8.212;2023-05-21T06:54:08;16.50;;;14.30;;
2486;SDS011;1254;49.144;8.212;2023-05-21T06:56:39;18.20;;;14.13;;
2486;SDS011;1254;49.144;8.212;2023-05-21T06:59:07;14.90;;;13.23;;
2486;SDS011;1254;49.144;8.212;2023-05-21T07:01:37;19.23;;;15.20;;
2486;SDS011;1254;49.144;8.212;2023-05-21T07:04:08;16.20;;;13.20;;
2486;SDS011;1254;49.144;8.212;2023-05-21T07:06:37;15.57;;;13.97;;
2486;SDS011;1254;49.144;8.212;2023-05-21T07:09:05;16.70;;;14.43;;
2486;SDS011;1254;49.144;8.212;2023-05-21T07:11:35;16.00;;;13.80;;
2486;SDS011;1254;49.144;8.212;2023-05-21T07:14:05;16.50;;;14.80;;
2486;SDS011;1254;49.144;8.212;2023-05-21T07:16:35;14.77;;;13.30;;
2486;SDS011;1254;49.144;8.212;2023-05-21T07:19:04;16.30;;;14.60;;
2486;SDS011;1254;49.144;8.212;2023-05-21T07:21:34;16.40;;;14.70;;
2486;SDS011;1254;49.144;8.212;2023-05-21T07:24:02;16.77;;;14.93;;
2486;SDS011;1254;49.144;8.212;2023-05-21T07:26:30;18.27;;;14.77;;
2486;SDS011;1254;49.144;8.212;2023-05-21T07:28:59;14.87;;;13.27;;
2486;SDS011;1254;49.144;8.212;2023-05-21T07:31:27;15.80;;;14.07;;
2486;SDS011;1254;49.144;8.212;2023-05-21T07:33:56;17.20;;;14.67;;
2486;SDS011;1254;49.144;8.212;2023-05-21T07:36:28;16.23;;;13.47;;
2486;SDS011;1254;49.144;8.212;2023-05-21T07:38:59;16.70;;;15.00;;
2486;SDS011;1254;49.144;8.212;2023-05-21T07:41:29;14.50;;;13.00;;
2486;SDS011;1254;49.144;8.212;2023-05-21T07:43:59;14.23;;;12.83;;
2486;SDS011;1254;49.144;8.212;2023-05-21T07:46:27;19.27;;;13.77;;
2486;SDS011;1254;49.144;8.212;2023-05-21T07:48:57;15.43;;;13.10;;
2486;SDS011;1254;49.144;8.212;2023-05-21T07:51:25;16.00;;;14.20;;
2486;SDS011;1254;49.144;8.212;2023-05-21T07:53:53;16.50;;;14.90;;
2486;SDS011;1254;49.144;8.212;2023-05-21T07:56:30;22.17;;;13.40;;
2486;SDS011;1254;49.144;8.212;2023-05-21T07:58:59;16.00;;;14.30;;
2486;SDS011;1254;49.144;8.212;2023-05-21T08:01:28;15.40;;;13.30;;
2486;SDS011;1254;49.144;8.212;2023-05-21T08:03:58;19.37;;;17.23;;
2486;SDS011;1254;49.144;8.212;2023-05-21T08:06:30;15.97;;;14.27;;
2486;SDS011;1254;49.144;8.212;2023-05-21T08:08:59;18.93;;;14.47;;
2486;SDS011;1254;49.144;8.212;2023-05-21T08:11:28;14.33;;;13.00;;
2486;SDS011;1254;49.144;8.212;2023-05-21T08:13:57;14.87;;;13.40;;
2486;SDS011;1254;49.144;8.212;2023-05-21T08:16:26;15.37;;;13.83;;
2486;SDS011;1254;49.144;8.212;2023-05-21T08:18:54;14.77;;;13.37;;
2486;SDS011;1254;49.144;8.212;2023-05-21T08:21:23;14.20;;;12.80;;
2486;SDS011;1254;49.144;8.212;2023-05-21T08:23:51;14.53;;;13.13;;
2486;SDS011;1254;49.144;8.212;2023-05-21T08:26:20;15.07;;;13.43;;
2486;SDS011;1254;49.144;8.212;2023-05-21T08:28:48;13.50;;;12.30;;
2486;SDS011;1254;49.144;8.212;2023-05-21T08:31:18;14.80;;;13.30;;
2486;SDS011;1254;49.144;8.212;2023-05-21T08:33:48;15.00;;;13.53;;
2486;SDS011;1254;49.144;8.212;2023-05-21T08:36:19;14.77;;;13.50;;
2486;SDS011;1254;49.144;8.212;2023-05-21T08:38:54;15.80;;;14.10;;
2486;SDS011;1254;49.144;8.212;2023-05-21T08:41:32;15.00;;;13.50;;
2486;SDS011;1254;49.144;8.212;2023-05-21T08:44:02;14.20;;;12.73;;
2486;SDS011;1254;49.144;8.212;2023-05-21T08:46:32;15.70;;;13.87;;
2486;SDS011;1254;49.144;8.212;2023-05-21T08:49:01;14.80;;;13.50;;
2486;SDS011;1254;49.144;8.212;2023-05-21T08:51:30;17.80;;;14.97;;
2486;SDS011;1254;49.144;8.212;2023-05-21T08:53:59;14.93;;;13.43;;
2486;SDS011;1254;49.144;8.212;2023-05-21T08:56:29;14.03;;;12.83;;
2486;SDS011;1254;49.144;8.212;2023-05-21T08:58:58;14.00;;;12.70;;
2486;SDS011;1254;49.144;8.212;2023-05-21T09:01:32;14.83;;;13.30;;
2486;SDS011;1254;49.144;8.212;2023-05-21T09:04:18;17.00;;;13.40;;
2486;SDS011;1254;49.144;8.212;2023-05-21T09:06:47;14.40;;;12.90;;
2486;SDS011;1254;49.144;8.212;2023-05-21T09:09:24;12.87;;;11.77;;
2486;SDS011;1254;49.144;8.212;2023-05-21T09:11:55;15.33;;;12.63;;
2486;SDS011;1254;49.144;8.212;2023-05-21T09:14:23;13.23;;;12.10;;
2486;SDS011;1254;49.144;8.212;2023-05-21T09:17:04;13.83;;;12.47;;
2486;SDS011;1254;49.144;8.212;2023-05-21T09:19:32;13.23;;;12.07;;
2486;SDS011;1254;49.144;8.212;2023-05-21T09:22:01;14.93;;;13.40;;
2486;SDS011;1254;49.144;8.212;2023-05-21T09:24:32;13.77;;;12.60;;
2486;SDS011;1254;49.144;8.212;2023-05-21T09:27:00;15.00;;;13.70;;
2486;SDS011;1254;49.144;8.212;2023-05-21T09:29:30;14.30;;;13.00;;
2486;SDS011;1254;49.144;8.212;2023-05-21T09:32:06;13.50;;;12.30;;
2486;SDS011;1254;49.144;8.212;2023-05-21T09:34:37;13.53;;;11.90;;
2486;SDS011;1254;49.144;8.212;2023-05-21T09:37:05;15.27;;;13.00;;
2486;SDS011;1254;49.144;8.212;2023-05-21T09:39:34;14.07;;;12.73;;
2486;SDS011;1254;49.144;8.212;2023-05-21T09:42:03;15.20;;;13.77;;
2486;SDS011;1254;49.144;8.212;2023-05-21T09:44:33;17.00;;;13.40;;
2486;SDS011;1254;49.144;8.212;2023-05-21T09:47:02;13.93;;;12.83;;
2486;SDS011;1254;49.144;8.212;2023-05-21T09:49:31;15.00;;;13.90;;
2486;SDS011;1254;49.144;8.212;2023-05-21T09:52:00;14.90;;;13.60;;
2486;SDS011;1254;49.144;8.212;2023-05-21T09:54:29;14.13;;;13.03;;
2486;SDS011;1254;49.144;8.212;2023-05-21T09:56:58;12.93;;;11.80;;
2486;SDS011;1254;49.144;8.212;2023-05-21T09:59:34;14.13;;;12.93;;
2486;SDS011;1254;49.144;8.212;2023-05-21T10:02:02;14.20;;;13.10;;
2486;SDS011;1254;49.144;8.212;2023-05-21T10:04:32;14.50;;;13.30;;
2486;SDS011;1254;49.144;8.212;2023-05-21T10:07:00;14.07;;;12.90;;
2486;SDS011;1254;49.144;8.212;2023-05-21T10:09:29;13.43;;;12.30;;
2486;SDS011;1254;49.144;8.212;2023-05-21T10:11:57;14.40;;;13.20;;
2486;SDS011;1254;49.144;8.212;2023-05-21T10:14:26;15.20;;;13.70;;
2486;SDS011;1254;49.144;8.212;2023-05-21T10:16:57;13.90;;;12.63;;
2486;SDS011;1254;49.144;8.212;2023-05-21T10:19:26;14.47;;;13.13;;
2486;SDS011;1254;49.144;8.212;2023-05-21T10:21:58;14.43;;;13.00;;
2486;SDS011;1254;49.144;8.212;2023-05-21T10:24:27;15.37;;;14.07;;
2486;SDS011;1254;49.144;8.212;2023-05-21T10:26:55;15.50;;;14.03;;
2486;SDS011;1254;49.144;8.212;2023-05-21T10:29:24;15.20;;;13.90;;
2486;SDS011;1254;49.144;8.212;2023-05-21T10:31:52;15.40;;;14.10;;
2486;SDS011;1254;49.144;8.212;2023-05-21T10:34:21;15.33;;;14.10;;
2486;SDS011;1254;49.144;8.212;2023-05-21T10:36:50;15.23;;;13.80;;
2486;SDS011;1254;49.144;8.212;2023-05-21T10:39:20;15.73;;;13.80;;
2486;SDS011;1254;49.144;8.212;2023-05-21T10:41:52;13.87;;;12.87;;
2486;SDS011;1254;49.144;8.212;2023-05-21T10:44:24;12.77;;;11.67;;
2486;SDS011;1254;49.144;8.212;2023-05-21T10:49:54;16.00;;;13.47;;
2486;SDS011;1254;49.144;8.212;2023-05-21T10:52:35;15.90;;;14.70;;
2486;SDS011;1254;49.144;8.212;2023-05-21T10:55:12;14.63;;;13.33;;
2486;SDS011;1254;49.144;8.212;2023-05-21T10:57:49;13.77;;;12.77;;
2486;SDS011;1254;49.144;8.212;2023-05-21T11:00:21;13.60;;;12.33;;
2486;SDS011;1254;49.144;8.212;2023-05-21T11:02:51;14.47;;;13.20;;
2486;SDS011;1254;49.144;8.212;2023-05-21T11:05:33;13.83;;;12.83;;
2486;SDS011;1254;49.144;8.212;2023-05-21T11:08:17;15.07;;;13.70;;
2486;SDS011;1254;49.144;8.212;2023-05-21T11:10:52;13.40;;;12.40;;
2486;SDS011;1254;49.144;8.212;2023-05-21T11:13:21;14.77;;;13.23;;
2486;SDS011;1254;49.144;8.212;2023-05-21T11:16:04;13.70;;;12.43;;
2486;SDS011;1254;49.144;8.212;2023-05-21T11:21:21;15.10;;;13.90;;
2486;SDS011;1254;49.144;8.212;2023-05-21T11:23:54;14.00;;;12.90;;
2486;SDS011;1254;49.144;8.212;2023-05-21T11:26:24;14.77;;;13.40;;
2486;SDS011;1254;49.144;8.212;2023-05-21T11:29:04;14.43;;;13.17;;
2486;SDS011;1254;49.144;8.212;2023-05-21T11:31:34;14.63;;;13.33;;
2486;SDS011;1254;49.144;8.212;2023-05-21T11:34:12;20.97;;;13.53;;
2486;SDS011;1254;49.144;8.212;2023-05-21T11:36:43;16.87;;;13.20;;
2486;SDS011;1254;49.144;8.212;2023-05-21T11:39:12;14.40;;;13.37;;
2486;SDS011;1254;49.144;8.212;2023-05-21T11:41:51;13.33;;;12.33;;
2486;SDS011;1254;49.144;8.212;2023-05-21T11:44:20;13.80;;;12.80;;
2486;SDS011;1254;49.144;8.212;2023-05-21T11:46:48;14.67;;;13.50;;
2486;SDS011;1254;49.144;8.212;2023-05-21T11:49:18;15.23;;;13.30;;
2486;SDS011;1254;49.144;8.212;2023-05-21T11:51:48;13.57;;;12.63;;
2486;SDS011;1254;49.144;8.212;2023-05-21T11:54:17;13.93;;;12.93;;
2486;SDS011;1254;49.144;8.212;2023-05-21T11:56:45;15.30;;;13.90;;
2486;SDS011;1254;49.144;8.212;2023-05-21T11:59:15;16.80;;;12.00;;
2486;SDS011;1254;49.144;8.212;2023-05-21T12:01:43;14.17;;;12.77;;
2486;SDS011;1254;49.144;8.212;2023-05-21T12:04:12;14.17;;;13.07;;
2486;SDS011;1254;49.144;8.212;2023-05-21T12:06:41;13.23;;;12.30;;
2486;SDS011;1254;49.144;8.212;2023-05-21T12:09:10;14.17;;;13.07;;
2486;SDS011;1254;49.144;8.212;2023-05-21T12:11:39;16.67;;;13.87;;
2486;SDS011;1254;49.144;8.212;2023-05-21T12:14:08;15.80;;;14.60;;
2486;SDS011;1254;49.144;8.212;2023-05-21T12:16:38;14.03;;;13.00;;
2486;SDS011;1254;49.144;8.212;2023-05-21T12:19:07;14.73;;;13.63;;
2486;SDS011;1254;49.144;8.212;2023-05-21T12:21:35;15.17;;;14.00;;
2486;SDS011;1254;49.144;8.212;2023-05-21T12:24:05;14.00;;;12.90;;
2486;SDS011;1254;49.144;8.212;2023-05-21T12:26:33;15.40;;;13.97;;
2486;SDS011;1254;49.144;8.212;2023-05-21T12:29:01;15.47;;;14.37;;
2486;SDS011;1254;49.144;8.212;2023-05-21T12:31:31;14.63;;;13.63;;
2486;SDS011;1254;49.144;8.212;2023-05-21T12:34:01;15.10;;;14.10;;
2486;SDS011;1254;49.144;8.212;2023-05-21T12:36:29;15.53;;;14.40;;
2486;SDS011;1254;49.144;8.212;2023-05-21T12:38:59;16.77;;;15.53;;
2486;SDS011;1254;49.144;8.212;2023-05-21T12:41:27;15.37;;;14.13;;
2486;SDS011;1254;49.144;8.212;2023-05-21T12:43:56;15.43;;;13.93;;
2486;SDS011;1254;49.144;8.212;2023-05-21T12:46:24;15.10;;;13.80;;
2486;SDS011;1254;49.144;8.212;2023-05-21T12:48:53;15.63;;;14.17;;
2486;SDS011;1254;49.144;8.212;2023-05-21T12:51:22;14.77;;;13.57;;
2486;SDS011;1254;49.144;8.212;2023-05-21T12:53:50;16.13;;;14.90;;
2486;SDS011;1254;49.144;8.212;2023-05-21T12:56:19;16.97;;;15.70;;
2486;SDS011;1254;49.144;8.212;2023-05-21T12:58:48;15.00;;;14.00;;
2486;SDS011;1254;49.144;8.212;2023-05-21T13:01:17;17.47;;;16.07;;
2486;SDS011;1254;49.144;8.212;2023-05-21T13:03:48;15.93;;;14.80;;
2486;SDS011;1254;49.144;8.212;2023-05-21T13:06:16;15.40;;;14.27;;
2486;SDS011;1254;49.144;8.212;2023-05-21T13:08:46;15.53;;;14.43;;
2486;SDS011;1254;49.144;8.212;2023-05-21T13:11:14;16.80;;;15.43;;
2486;SDS011;1254;49.144;8.212;2023-05-21T13:13:42;14.20;;;13.10;;
2486;SDS011;1254;49.144;8.212;2023-05-21T13:16:10;14.47;;;13.57;;
2486;SDS011;1254;49.144;8.212;2023-05-21T13:18:38;15.97;;;14.67;;
2486;SDS011;1254;49.144;8.212;2023-05-21T13:21:07;13.97;;;12.90;;
2486;SDS011;1254;49.144;8.212;2023-05-21T13:23:35;14.93;;;13.70;;
2486;SDS011;1254;49.144;8.212;2023-05-21T13:26:04;15.30;;;13.40;;
2486;SDS011;1254;49.144;8.212;2023-05-21T13:28:33;15.30;;;14.10;;
2486;SDS011;1254;49.144;8.212;2023-05-21T13:31:01;15.27;;;14.23;;
2486;SDS011;1254;49.144;8.212;2023-05-21T13:33:30;14.97;;;13.70;;
2486;SDS011;1254;49.144;8.212;2023-05-21T13:35:58;16.00;;;14.60;;
2486;SDS011;1254;49.144;8.212;2023-05-21T13:38:26;15.73;;;14.63;;
2486;SDS011;1254;49.144;8.212;2023-05-21T13:40:55;15.23;;;14.13;;
2486;SDS011;1254;49.144;8.212;2023-05-21T13:43:24;15.57;;;14.10;;
2486;SDS011;1254;49.144;8.212;2023-05-21T13:45:53;15.17;;;13.63;;
2486;SDS011;1254;49.144;8.212;2023-05-21T13:48:21;14.60;;;13.57;;
2486;SDS011;1254;49.144;8.212;2023-05-21T13:50:49;15.53;;;14.40;;
2486;SDS011;1254;49.144;8.212;2023-05-21T13:53:17;14.07;;;13.07;;
2486;SDS011;1254;49.144;8.212;2023-05-21T13:55:45;15.73;;;14.43;;
2486;SDS011;1254;49.144;8.212;2023-05-21T13:58:14;14.67;;;13.67;;
2486;SDS011;1254;49.144;8.212;2023-05-21T14:00:43;14.77;;;13.67;;
2486;SDS011;1254;49.144;8.212;2023-05-21T14:03:11;14.97;;;13.67;;
2486;SDS011;1254;49.144;8.212;2023-05-21T14:05:39;15.53;;;14.17;;
2486;SDS011;1254;49.144;8.212;2023-05-21T14:08:07;14.90;;;13.60;;
2486;SDS011;1254;49.144;8.212;2023-05-21T14:10:36;14.97;;;13.73;;
2486;SDS011;1254;49.144;8.212;2023-05-21T14:13:04;15.43;;;14.13;;
2486;SDS011;1254;49.144;8.212;2023-05-21T14:15:32;13.60;;;12.60;;
2486;SDS011;1254;49.144;8.212;2023-05-21T14:18:01;12.90;;;11.77;;
2486;SDS011;1254;49.144;8.212;2023-05-21T14:20:32;14.17;;;12.97;;
2486;SDS011;1254;49.144;8.212;2023-05-21T14:23:01;12.53;;;11.63;;
2486;SDS011;1254;49.144;8.212;2023-05-21T14:25:29;15.23;;;13.90;;
2486;SDS011;1254;49.144;8.212;2023-05-21T14:27:57;14.63;;;13.70;;
2486;SDS011;1254;49.144;8.212;2023-05-21T14:30:25;15.40;;;14.20;;
2486;SDS011;1254;49.144;8.212;2023-05-21T14:32:53;15.37;;;13.83;;
2486;SDS011;1254;49.144;8.212;2023-05-21T14:35:22;14.50;;;13.50;;
2486;SDS011;1254;49.144;8.212;2023-05-21T14:37:51;15.73;;;14.67;;
2486;SDS011;1254;49.144;8.212;2023-05-21T14:40:19;15.60;;;14.23;;
2486;SDS011;1254;49.144;8.212;2023-05-21T14:42:47;15.90;;;14.70;;
2486;SDS011;1254;49.144;8.212;2023-05-21T14:45:17;13.37;;;12.40;;
2486;SDS011;1254;49.144;8.212;2023-05-21T14:47:45;14.53;;;13.33;;
2486;SDS011;1254;49.144;8.212;2023-05-21T14:50:14;13.03;;;12.23;;
2486;SDS011;1254;49.144;8.212;2023-05-21T14:52:43;13.60;;;12.80;;
2486;SDS011;1254;49.144;8.212;2023-05-21T14:55:11;13.33;;;12.40;;
2486;SDS011;1254;49.144;8.212;2023-05-21T14:57:41;13.13;;;12.33;;
2486;SDS011;1254;49.144;8.212;2023-05-21T15:00:10;14.63;;;13.33;;
2486;SDS011;1254;49.144;8.212;2023-05-21T15:02:39;12.80;;;12.10;;
2486;SDS011;1254;49.144;8.212;2023-05-21T15:05:07;12.90;;;12.20;;
2486;SDS011;1254;49.144;8.212;2023-05-21T15:07:35;11.73;;;10.93;;